createdAt,value
2022-11-21T00:01:01.862Z,67.64
2022-11-21T00:03:30.897Z,68.11
2022-11-21T00:05:59.993Z,68.93
2022-11-21T00:08:33.171Z,68.84
2022-11-21T00:10:59.863Z,68.89
2022-11-21T00:13:28.876Z,68.78
2022-11-21T00:15:55.457Z,68.74
2022-11-21T00:18:22.220Z,68.51
2022-11-21T00:20:51.317Z,68.48
2022-11-21T00:23:18.021Z,68.38
2022-11-21T00:25:47.394Z,68.32
2022-11-21T00:28:13.964Z,68.37
2022-11-21T00:30:42.624Z,68.28
2022-11-21T00:33:09.152Z,68.29
2022-11-21T00:35:35.831Z,68.29
2022-11-21T00:38:02.420Z,68.09
2022-11-21T00:40:28.959Z,67.93
2022-11-21T00:42:55.480Z,67.85
2022-11-21T00:45:24.497Z,67.60
2022-11-21T00:47:51.351Z,67.69
2022-11-21T00:50:18.023Z,67.73
2022-11-21T00:52:46.905Z,68.06
2022-11-21T00:55:13.449Z,69.06
2022-11-21T00:57:41.126Z,69.29
2022-11-21T01:00:08.046Z,70.18
2022-11-21T01:02:34.648Z,70.36
2022-11-21T01:05:01.243Z,70.60
2022-11-21T01:07:30.448Z,70.63
2022-11-21T01:10:00.126Z,70.49
2022-11-21T01:12:26.735Z,70.50
2022-11-21T01:14:53.240Z,70.16
2022-11-21T01:17:22.805Z,70.15
2022-11-21T01:19:49.355Z,69.87
2022-11-21T01:22:18.351Z,69.62
2022-11-21T01:24:44.941Z,69.18
2022-11-21T01:27:11.580Z,68.93
2022-11-21T01:29:38.628Z,68.72
2022-11-21T01:32:07.607Z,68.83
2022-11-21T01:34:34.213Z,68.67
2022-11-21T01:37:01.336Z,68.82
2022-11-21T01:39:30.957Z,68.70
2022-11-21T01:41:57.645Z,68.88
2022-11-21T01:44:25.401Z,68.95
2022-11-21T01:46:52.678Z,70.29
2022-11-21T01:49:24.783Z,71.58
2022-11-21T01:52:04.765Z,71.31
2022-11-21T01:54:57.681Z,71.24
2022-11-21T01:57:26.022Z,71.61
2022-11-21T01:59:52.602Z,71.10
2022-11-21T02:02:20.918Z,71.41
2022-11-21T02:04:47.548Z,70.93
2022-11-21T02:07:14.184Z,70.88
2022-11-21T02:09:42.022Z,70.70
2022-11-21T02:12:14.010Z,70.58
2022-11-21T02:14:41.121Z,70.42
2022-11-21T02:17:07.748Z,70.19
2022-11-21T02:19:42.153Z,69.94
2022-11-21T02:22:13.290Z,69.63
2022-11-21T02:24:44.086Z,69.36
2022-11-21T02:27:10.613Z,69.62
2022-11-21T02:29:37.559Z,69.53
2022-11-21T02:32:05.439Z,69.28
2022-11-21T02:34:32.469Z,69.25
2022-11-21T02:37:03.769Z,69.12
2022-11-21T02:39:34.072Z,69.06
2022-11-21T02:42:04.732Z,69.06
2022-11-21T02:44:43.662Z,69.04
2022-11-21T02:47:12.615Z,69.00
2022-11-21T02:49:56.897Z,68.92
2022-11-21T02:52:23.441Z,68.82
2022-11-21T02:54:50.008Z,68.95
2022-11-21T02:57:16.555Z,68.74
2022-11-21T02:59:43.584Z,68.78
2022-11-21T03:02:12.593Z,68.87
2022-11-21T03:04:39.229Z,68.92
2022-11-21T03:07:05.879Z,69.37
2022-11-21T03:09:37.330Z,69.43
2022-11-21T03:12:07.406Z,69.76
2022-11-21T03:14:37.060Z,69.71
2022-11-21T03:17:04.012Z,69.76
2022-11-21T03:19:32.921Z,69.56
2022-11-21T03:22:01.866Z,69.40
2022-11-21T03:24:28.644Z,69.19
2022-11-21T03:26:55.412Z,68.96
2022-11-21T03:29:22.410Z,69.25
2022-11-21T03:31:51.413Z,68.94
2022-11-21T03:34:18.030Z,68.89
2022-11-21T03:36:47.018Z,68.54
2022-11-21T03:39:16.097Z,68.83
2022-11-21T03:41:42.641Z,68.72
2022-11-21T03:44:12.046Z,68.85
2022-11-21T03:46:41.791Z,68.78
2022-11-21T03:49:13.933Z,68.62
2022-11-21T03:51:43.616Z,68.92
2022-11-21T03:54:13.377Z,68.92
2022-11-21T03:56:42.279Z,68.90
2022-11-21T03:59:08.844Z,68.96
2022-11-21T04:01:37.644Z,69.08
2022-11-21T04:04:07.080Z,68.86
2022-11-21T04:06:36.116Z,68.55
2022-11-21T04:09:02.717Z,68.32
2022-11-21T04:11:29.287Z,68.32
2022-11-21T04:13:55.905Z,68.46
2022-11-21T04:16:22.980Z,68.34
2022-11-21T04:18:49.658Z,68.56
2022-11-21T04:21:18.622Z,68.44
2022-11-21T04:23:45.240Z,68.35
2022-11-21T04:26:11.834Z,68.41
2022-11-21T04:28:38.870Z,68.26
2022-11-21T04:31:10.451Z,68.45
2022-11-21T04:33:40.590Z,68.46
2022-11-21T04:36:07.996Z,68.46
2022-11-21T04:38:34.650Z,68.28
2022-11-21T04:41:01.319Z,68.25
2022-11-21T04:43:30.134Z,68.36
2022-11-21T04:45:57.097Z,68.73
2022-11-21T04:48:24.773Z,68.63
2022-11-21T04:50:51.334Z,68.57
2022-11-21T04:53:20.348Z,68.64
2022-11-21T04:55:50.160Z,68.56
2022-11-21T04:58:16.812Z,68.57
2022-11-21T05:00:43.455Z,68.73
2022-11-21T05:03:10.138Z,68.91
2022-11-21T05:05:36.861Z,69.16
2022-11-21T05:08:06.865Z,69.14
2022-11-21T05:10:55.980Z,68.91
2022-11-21T05:13:22.636Z,68.92
2022-11-21T05:15:53.490Z,69.22
2022-11-21T05:18:20.460Z,69.61
2022-11-21T05:20:47.107Z,69.53
2022-11-21T05:23:16.053Z,69.28
2022-11-21T05:25:45.134Z,69.27
2022-11-21T05:28:14.679Z,69.67
2022-11-21T05:30:43.532Z,70.01
2022-11-21T05:33:10.065Z,70.51
2022-11-21T05:35:42.938Z,70.29
2022-11-21T05:38:12.898Z,70.14
2022-11-21T05:40:41.794Z,70.19
2022-11-21T05:43:28.768Z,70.23
2022-11-21T05:45:55.490Z,70.67
2022-11-21T05:48:24.803Z,70.53
2022-11-21T05:50:53.826Z,70.44
2022-11-21T05:53:20.478Z,70.26
2022-11-21T05:55:47.087Z,70.44
2022-11-21T05:58:13.971Z,70.35
2022-11-21T06:00:43.063Z,70.10
2022-11-21T06:03:28.044Z,69.95
2022-11-21T06:06:24.706Z,69.97
2022-11-21T06:08:52.027Z,69.81
2022-11-21T06:11:18.723Z,69.64
2022-11-21T06:13:45.586Z,69.80
2022-11-21T06:16:20.231Z,69.59
2022-11-21T06:18:47.951Z,69.35
2022-11-21T06:21:14.533Z,69.29
2022-11-21T06:23:41.175Z,69.34
2022-11-21T06:26:09.253Z,69.25
2022-11-21T06:28:45.712Z,69.38
2022-11-21T06:31:21.220Z,69.23
2022-11-21T06:34:01.718Z,68.61
2022-11-21T06:36:31.065Z,68.88
2022-11-21T06:39:02.386Z,68.66
2022-11-21T06:41:32.142Z,68.62
2022-11-21T06:44:00.110Z,68.74
2022-11-21T06:46:26.703Z,68.69
2022-11-21T06:48:53.656Z,68.37
2022-11-21T06:51:23.207Z,68.51
2022-11-21T06:53:57.083Z,68.70
2022-11-21T06:56:24.137Z,68.64
2022-11-21T06:58:50.690Z,68.53
2022-11-21T07:01:17.331Z,68.59
2022-11-21T07:03:46.477Z,68.55
2022-11-21T07:06:13.036Z,68.40
2022-11-21T07:08:42.097Z,68.21
2022-11-21T07:11:27.250Z,67.88
2022-11-21T07:13:53.877Z,67.66
2022-11-21T07:16:25.011Z,66.99
2022-11-21T07:18:51.545Z,67.33
2022-11-21T07:21:18.076Z,67.39
2022-11-21T07:23:44.705Z,66.86
2022-11-21T07:26:11.269Z,66.48
2022-11-21T07:28:40.836Z,67.43
2022-11-21T07:31:13.460Z,67.73
2022-11-21T07:33:47.528Z,67.48
2022-11-21T07:36:14.252Z,67.37
2022-11-21T07:38:41.771Z,67.12
2022-11-21T07:41:09.024Z,66.85
2022-11-21T07:43:35.665Z,66.62
2022-11-21T07:46:02.349Z,66.70
2022-11-21T07:48:29.095Z,66.87
2022-11-21T07:50:58.552Z,66.81
2022-11-21T07:53:25.242Z,66.64
2022-11-21T07:55:51.877Z,66.52
2022-11-21T07:58:18.514Z,66.58
2022-11-21T08:00:45.197Z,66.24
2022-11-21T08:03:12.625Z,66.52
2022-11-21T08:05:42.993Z,65.24
2022-11-21T08:08:10.306Z,65.43
2022-11-21T08:10:37.783Z,65.25
2022-11-21T08:13:06.899Z,65.20
2022-11-21T08:15:36.182Z,65.60
2022-11-21T08:18:11.137Z,65.10
2022-11-21T08:20:37.779Z,65.36
2022-11-21T08:23:06.669Z,65.23
2022-11-21T08:25:37.171Z,63.34
2022-11-21T08:28:04.784Z,63.56
2022-11-21T08:30:31.944Z,63.86
2022-11-21T08:33:01.373Z,63.32
2022-11-21T08:35:28.144Z,62.96
2022-11-21T08:38:00.910Z,62.42
2022-11-21T08:40:28.047Z,63.09
2022-11-21T08:42:58.517Z,63.35
2022-11-21T08:45:27.668Z,63.36
2022-11-21T08:47:56.681Z,63.02
2022-11-21T08:50:23.800Z,63.15
2022-11-21T08:52:50.491Z,62.72
2022-11-21T08:55:19.676Z,62.42
2022-11-21T08:57:46.215Z,62.54
2022-11-21T09:00:13.218Z,62.81
2022-11-21T09:02:42.072Z,62.63
2022-11-21T09:05:15.682Z,62.14
2022-11-21T09:07:42.438Z,62.41
2022-11-21T09:10:09.425Z,62.01
2022-11-21T09:12:36.119Z,62.82
2022-11-21T09:15:23.773Z,62.83
2022-11-21T09:18:07.193Z,62.62
2022-11-21T09:20:34.789Z,61.91
2022-11-21T09:23:12.908Z,62.56
2022-11-21T09:25:40.099Z,62.56
2022-11-21T09:28:10.072Z,62.40
2022-11-21T09:30:36.723Z,62.82
2022-11-21T09:33:04.069Z,62.30
2022-11-21T09:35:30.661Z,61.41
2022-11-21T09:37:57.476Z,61.17
2022-11-21T09:40:26.337Z,60.73
2022-11-21T09:43:11.677Z,61.94
2022-11-21T09:45:58.436Z,60.93
2022-11-21T09:48:28.044Z,60.80
2022-11-21T09:50:55.082Z,61.20
2022-11-21T09:53:21.566Z,61.58
2022-11-21T09:55:57.064Z,62.05
2022-11-21T09:58:23.809Z,61.72
2022-11-21T10:00:53.216Z,60.96
2022-11-21T10:03:22.462Z,60.91
2022-11-21T10:05:55.500Z,61.36
2022-11-21T10:08:30.196Z,61.27
2022-11-21T10:10:58.616Z,61.71
2022-11-21T10:13:31.742Z,62.00
2022-11-21T10:16:00.565Z,60.52
2022-11-21T10:18:29.720Z,61.51
2022-11-21T10:21:21.123Z,61.45
2022-11-21T10:23:55.249Z,60.53
2022-11-21T10:26:40.733Z,60.37
2022-11-21T10:29:11.135Z,60.23
2022-11-21T10:31:38.454Z,59.84
2022-11-21T10:34:10.213Z,59.82
2022-11-21T10:36:37.048Z,58.79
2022-11-21T10:39:06.604Z,59.31
2022-11-21T10:41:38.891Z,58.86
2022-11-21T10:44:33.395Z,59.01
2022-11-21T10:47:00.520Z,58.95
2022-11-21T10:49:28.350Z,58.84
2022-11-21T10:52:06.961Z,58.62
2022-11-21T10:54:33.633Z,58.60
2022-11-21T10:57:19.010Z,58.05
2022-11-21T11:00:02.116Z,57.91
2022-11-21T11:02:28.691Z,58.12
2022-11-21T11:05:17.637Z,58.28
2022-11-21T11:08:01.212Z,58.25
2022-11-21T11:10:28.517Z,57.69
2022-11-21T11:13:44.049Z,58.45
2022-11-21T11:16:00.578Z,58.38
2022-11-21T11:18:32.219Z,57.92
2022-11-21T11:21:17.692Z,58.64
2022-11-21T11:23:44.663Z,58.75
2022-11-21T11:26:20.339Z,58.24
2022-11-21T11:28:47.936Z,58.34
2022-11-21T11:31:16.893Z,58.29
2022-11-21T11:33:50.778Z,58.50
2022-11-21T11:36:23.424Z,58.34
2022-11-21T11:38:53.856Z,57.68
2022-11-21T11:42:00.709Z,58.62
2022-11-21T11:44:50.085Z,58.62
2022-11-21T11:47:32.611Z,58.45
2022-11-21T11:50:12.978Z,57.79
2022-11-21T11:52:42.336Z,57.66
2022-11-21T11:55:19.092Z,57.49
2022-11-21T11:57:47.985Z,56.21
2022-11-21T12:00:41.054Z,55.71
2022-11-21T12:03:15.324Z,55.78
2022-11-21T12:05:46.957Z,55.80
2022-11-21T12:08:40.978Z,56.95
2022-11-21T12:11:35.207Z,57.29
2022-11-21T12:14:04.674Z,56.45
2022-11-21T12:16:31.182Z,56.74
2022-11-21T12:19:02.502Z,56.74
2022-11-21T12:21:31.432Z,55.91
2022-11-21T12:23:58.439Z,55.40
2022-11-21T12:26:28.199Z,55.73
2022-11-21T12:29:13.324Z,55.54
2022-11-21T12:31:42.809Z,56.56
2022-11-21T12:34:15.522Z,56.43
2022-11-21T12:37:02.822Z,55.92
2022-11-21T12:39:39.202Z,56.42
2022-11-21T12:42:43.211Z,55.95
2022-11-21T12:45:14.968Z,55.27
2022-11-21T12:48:19.247Z,53.96
2022-11-21T12:51:24.464Z,51.78
2022-11-21T12:54:20.228Z,50.42
2022-11-21T12:56:52.112Z,49.79
2022-11-21T12:59:18.666Z,49.53
2022-11-21T13:01:51.554Z,49.09
2022-11-21T13:04:23.203Z,48.89
2022-11-21T13:06:49.811Z,49.79
2022-11-21T13:09:16.894Z,50.61
2022-11-21T13:12:02.334Z,50.88
2022-11-21T13:14:37.544Z,51.41
2022-11-21T13:17:07.174Z,52.76
2022-11-21T13:19:55.768Z,53.38
2022-11-21T13:22:37.585Z,52.89
2022-11-21T13:25:09.467Z,53.70
2022-11-21T13:27:38.784Z,54.00
2022-11-21T13:30:08.212Z,53.47
2022-11-21T13:32:40.788Z,52.89
2022-11-21T13:35:16.575Z,52.11
2022-11-21T13:37:51.929Z,49.79
2022-11-21T13:40:38.810Z,48.45
2022-11-21T13:43:35.566Z,46.61
2022-11-21T13:46:02.400Z,47.29
2022-11-21T13:48:30.619Z,48.02
2022-11-21T13:51:03.388Z,47.43
2022-11-21T13:53:42.301Z,48.42
2022-11-21T13:56:08.961Z,48.20
2022-11-21T13:58:51.733Z,49.01
2022-11-21T14:01:24.514Z,50.73
2022-11-21T14:04:06.290Z,52.53
2022-11-21T14:06:39.097Z,53.85
2022-11-21T14:09:05.708Z,54.51
2022-11-21T14:11:34.907Z,55.09
2022-11-21T14:14:01.522Z,55.48
2022-11-21T14:16:35.381Z,55.85
2022-11-21T14:19:06.816Z,56.77
2022-11-21T14:21:35.442Z,58.08
2022-11-21T14:24:13.253Z,59.29
2022-11-21T14:26:51.581Z,59.45
2022-11-21T14:29:19.441Z,60.10
2022-11-21T14:31:48.720Z,60.06
2022-11-21T14:34:25.622Z,60.19
2022-11-21T14:36:52.574Z,60.47
2022-11-21T14:39:44.365Z,60.96
2022-11-21T14:42:15.415Z,61.38
2022-11-21T14:44:42.168Z,61.71
2022-11-21T14:47:23.484Z,61.97
2022-11-21T14:49:57.004Z,61.85
2022-11-21T14:52:26.889Z,62.36
2022-11-21T14:55:27.909Z,62.35
2022-11-21T14:57:42.393Z,61.95
2022-11-21T15:00:10.238Z,62.38
2022-11-21T15:02:39.179Z,62.59
2022-11-21T15:05:07.940Z,62.31
2022-11-21T15:07:42.419Z,62.26
2022-11-21T15:13:09.750Z,62.07
2022-11-21T15:15:43.547Z,62.23
2022-11-21T15:18:27.594Z,62.16
2022-11-21T15:20:55.465Z,62.15
2022-11-21T15:23:28.997Z,62.55
2022-11-21T15:26:01.325Z,62.93
2022-11-21T15:28:28.774Z,63.45
2022-11-21T15:31:14.185Z,63.81
2022-11-21T15:34:33.102Z,64.28
2022-11-21T15:37:08.541Z,64.71
2022-11-21T15:39:36.033Z,64.61
2022-11-21T15:42:21.293Z,65.12
2022-11-21T15:45:00.050Z,65.26
2022-11-21T15:47:29.130Z,65.68
2022-11-21T15:49:55.676Z,65.16
2022-11-21T15:52:22.214Z,65.65
2022-11-21T15:54:48.874Z,66.06
2022-11-21T15:57:15.394Z,62.05
2022-11-21T15:59:50.393Z,66.11
2022-11-21T16:02:17.108Z,66.23
2022-11-21T16:04:46.025Z,65.75
2022-11-21T16:07:12.674Z,65.62
2022-11-21T16:09:41.007Z,65.79
2022-11-21T16:12:08.574Z,65.51
2022-11-21T16:14:35.124Z,65.80
2022-11-21T16:17:01.751Z,65.86
2022-11-21T16:19:31.193Z,65.88
2022-11-21T16:21:58.606Z,66.15
2022-11-21T16:24:27.523Z,65.99
2022-11-21T16:26:55.475Z,65.53
2022-11-21T16:29:22.007Z,65.33
2022-11-21T16:31:49.984Z,65.35
2022-11-21T16:34:19.828Z,65.32
2022-11-21T16:36:48.720Z,65.25
2022-11-21T16:39:18.473Z,65.35
2022-11-21T16:41:59.189Z,65.21
2022-11-21T16:44:26.857Z,65.57
2022-11-21T16:46:55.479Z,65.58
2022-11-21T16:49:23.627Z,65.48
2022-11-21T16:51:56.558Z,65.90
2022-11-21T16:54:25.875Z,66.00
2022-11-21T16:56:52.833Z,66.39
2022-11-21T16:59:22.352Z,66.16
2022-11-21T17:01:50.284Z,67.16
2022-11-21T17:04:17.829Z,67.55
2022-11-21T17:06:48.958Z,67.69
2022-11-21T17:09:16.418Z,68.16
2022-11-21T17:11:46.344Z,68.21
2022-11-21T17:14:18.307Z,68.94
2022-11-21T17:16:48.880Z,68.97
2022-11-21T17:19:18.505Z,69.59
2022-11-21T17:21:47.643Z,69.70
2022-11-21T17:24:14.294Z,69.26
2022-11-21T17:26:40.887Z,69.24
2022-11-21T17:29:07.592Z,69.22
2022-11-21T17:31:37.026Z,69.61
2022-11-21T17:34:03.974Z,70.29
2022-11-21T17:36:30.944Z,70.42
2022-11-21T17:39:00.409Z,70.66
2022-11-21T17:41:29.675Z,71.04
2022-11-21T17:43:57.384Z,71.39
2022-11-21T17:46:25.723Z,71.27
2022-11-21T17:48:58.037Z,71.48
2022-11-21T17:51:26.802Z,71.37
2022-11-21T17:53:56.173Z,71.46
2022-11-21T17:56:24.207Z,71.80
2022-11-21T17:58:52.925Z,71.84
2022-11-21T18:01:22.336Z,72.17
2022-11-21T18:03:54.629Z,72.57
2022-11-21T18:06:23.609Z,71.99
2022-11-21T18:08:50.317Z,72.39
2022-11-21T18:11:18.527Z,71.98
2022-11-21T18:13:45.273Z,71.45
2022-11-21T18:16:12.636Z,71.95
2022-11-21T18:18:39.566Z,71.58
2022-11-21T18:21:16.564Z,72.08
2022-11-21T18:23:44.361Z,71.62
2022-11-21T18:26:15.456Z,71.54
2022-11-21T18:28:44.617Z,71.69
2022-11-21T18:31:15.792Z,71.57
2022-11-21T18:33:42.921Z,71.39
2022-11-21T18:36:10.264Z,71.39
2022-11-21T18:38:48.700Z,71.77
2022-11-21T18:41:17.866Z,71.44
2022-11-21T18:43:45.226Z,70.93
2022-11-21T18:46:16.480Z,71.70
2022-11-21T18:49:01.976Z,71.31
2022-11-21T18:51:35.356Z,71.29
2022-11-21T18:54:07.471Z,70.98
2022-11-21T18:56:34.654Z,71.38
2022-11-21T18:59:01.934Z,71.01
2022-11-21T19:01:29.147Z,70.71
2022-11-21T19:03:56.052Z,70.95
2022-11-21T19:06:26.146Z,70.64
2022-11-21T19:08:55.845Z,70.17
2022-11-21T19:11:24.584Z,70.34
2022-11-21T19:13:51.592Z,70.44
2022-11-21T19:16:19.686Z,70.38
2022-11-21T19:19:00.173Z,69.99
2022-11-21T19:21:35.567Z,70.00
2022-11-21T19:24:07.280Z,69.94
2022-11-21T19:26:33.888Z,69.63
2022-11-21T19:29:03.475Z,69.37
2022-11-21T19:31:29.994Z,68.86
2022-11-21T19:33:58.254Z,68.76
2022-11-21T19:36:29.476Z,69.25
2022-11-21T19:38:56.036Z,69.32
2022-11-21T19:41:26.730Z,69.60
2022-11-21T19:43:57.268Z,69.58
2022-11-21T19:46:24.917Z,69.74
2022-11-21T19:48:57.288Z,69.91
2022-11-21T19:51:25.077Z,70.34
2022-11-21T19:53:51.759Z,70.50
2022-11-21T19:56:19.265Z,70.68
2022-11-21T19:58:46.018Z,71.08
2022-11-21T20:01:16.944Z,71.59
2022-11-21T20:03:44.654Z,71.58
2022-11-21T20:06:19.920Z,71.50
2022-11-21T20:08:50.191Z,70.91
2022-11-21T20:11:20.734Z,70.53
2022-11-21T20:13:50.027Z,70.26
2022-11-21T20:16:21.533Z,70.22
2022-11-21T20:18:50.864Z,69.84
2022-11-21T20:21:20.557Z,69.57
2022-11-21T20:23:48.740Z,69.69
2022-11-21T20:26:16.303Z,69.41
2022-11-21T20:28:42.855Z,69.31
2022-11-21T20:31:09.880Z,69.13
2022-11-21T20:33:46.293Z,69.25
2022-11-21T20:36:18.483Z,69.09
2022-11-21T20:38:55.510Z,68.92
2022-11-21T20:41:25.511Z,68.67
2022-11-21T20:46:42.135Z,68.57
2022-11-21T20:49:11.327Z,68.76
2022-11-21T20:54:27.525Z,68.90
2022-11-21T20:56:56.638Z,69.12
2022-11-21T20:59:25.606Z,69.04
2022-11-21T21:01:52.127Z,69.15
2022-11-21T21:04:19.189Z,69.09
2022-11-21T21:06:48.392Z,69.24
2022-11-21T21:09:17.573Z,69.68
2022-11-21T21:11:52.628Z,69.89
2022-11-21T21:14:20.364Z,70.22
2022-11-21T21:16:49.397Z,70.38
2022-11-21T21:19:16.400Z,70.54
2022-11-21T21:21:42.947Z,71.23
2022-11-21T21:24:10.173Z,71.97
2022-11-21T21:26:42.613Z,72.42
2022-11-21T21:29:13.097Z,72.66
2022-11-21T21:31:42.708Z,73.66
2022-11-21T21:34:12.084Z,73.89
2022-11-21T21:36:38.635Z,74.54
2022-11-21T21:39:09.771Z,74.14
2022-11-21T21:41:39.926Z,74.32
2022-11-21T21:44:06.770Z,73.70
2022-11-21T21:46:37.258Z,73.54
2022-11-21T21:49:04.244Z,73.33
2022-11-21T21:51:33.142Z,73.12
2022-11-21T21:53:59.728Z,72.81
2022-11-21T21:56:27.092Z,72.78
2022-11-21T21:58:56.077Z,72.82
2022-11-21T22:01:22.684Z,72.65
2022-11-21T22:03:52.259Z,72.30
2022-11-21T22:06:18.844Z,72.33
2022-11-21T22:08:48.138Z,72.15
2022-11-21T22:11:18.785Z,71.77
2022-11-21T22:13:46.280Z,71.58
2022-11-21T22:16:15.289Z,72.24
2022-11-21T22:18:41.924Z,72.18
2022-11-21T22:21:21.799Z,72.13
2022-11-21T22:24:22.866Z,71.74
2022-11-21T22:26:39.783Z,71.63
2022-11-21T22:29:06.457Z,71.50
2022-11-21T22:31:33.080Z,71.74
2022-11-21T22:33:59.934Z,71.71
2022-11-21T22:36:31.587Z,71.69
2022-11-21T22:39:00.345Z,71.26
2022-11-21T22:41:31.497Z,71.12
2022-11-21T22:43:58.917Z,71.27
2022-11-21T22:46:28.604Z,70.92
2022-11-21T22:48:55.244Z,71.33
2022-11-21T22:51:25.871Z,71.61
2022-11-21T22:53:55.017Z,71.49
2022-11-21T22:56:22.468Z,71.37
2022-11-21T22:58:51.583Z,71.74
2022-11-21T23:01:19.578Z,71.67
2022-11-21T23:03:46.528Z,72.00
2022-11-21T23:06:17.547Z,72.32
2022-11-21T23:08:44.325Z,72.64
2022-11-21T23:11:15.350Z,72.74
2022-11-21T23:13:42.869Z,73.06
2022-11-21T23:16:09.739Z,73.01
2022-11-21T23:18:36.598Z,72.72
2022-11-21T23:21:03.490Z,72.92
2022-11-21T23:23:30.056Z,72.98
2022-11-21T23:26:01.475Z,73.04
2022-11-21T23:28:28.059Z,72.91
2022-11-21T23:30:59.191Z,72.38
2022-11-21T23:33:25.782Z,72.25
2022-11-21T23:35:54.903Z,71.97
2022-11-21T23:38:22.049Z,71.91
2022-11-21T23:40:48.938Z,71.54
2022-11-21T23:43:15.837Z,71.57
2022-11-21T23:45:45.546Z,71.31
2022-11-21T23:48:12.185Z,71.31
2022-11-21T23:50:39.917Z,71.07
2022-11-21T23:53:06.582Z,71.10
2022-11-21T23:55:36.110Z,71.25
2022-11-21T23:58:04.069Z,70.92
